Panora, Iowa
Current Conditions -  °F | °C
As of 11:55 AM on Monday 24 Nov 2014 (Local Time) from KPRO Reporting Station
Overcast Overcast  
Wind Chill: 12°   Ceiling: 2300
Heat Index: 26°   Visibility: 10mi
Dew Point: 19°   Wind: 20mph
Humidity: 75%   Direction: 310°NW
Pressure: 29.64"   Gusts: 29mph
Location:  41.69°N, 94.36°W
Report Text: KPRO 241755Z AUTO 31017G25KT 10SM OVC023 M03/M07 A2964 RMK AO2 T10351073 11023 21041
Loading
Personal Weather Stations






























Interactive Weather Map New forecast layout! Learn more

10-Day Weather Forecast

Advertisements
Track Severe Weather on mobile